Hartford/Springfield (BDL/KBDL)

Information

Location
Hartford, CT
Local Time
19:23 / 7:23 pm
GMT Time
00:23 / 12:23 am
Gates
Unassigned
No FAA reported delays
METAR KBDL 222351Z 17006KT 10SM FEW090 BKN110 BKN250 09/03 A2989 RMK AO2 SLP123 4/001 T00890028 10128 20089 53002
TAF KBDL 222336Z 2300/2406 15005KT P6SM FEW100 BKN200 FM230700 00000KT P6SM SCT010 BKN045 FM230900 00000KT 3SM BR SCT010 BKN050 FM231300 VRB03KT 6SM BR SCT090 FM232100 20008KT P6SM SCT025 FM240000 21006KT P6SM BKN015 FM240300 21005KT 6SM BR BKN030
  • No charts available